createdAt,value
2019-05-05T00:01:25.017Z,96681.17
2019-05-05T00:04:06.576Z,96687.68
2019-05-05T00:06:36.004Z,96681.53
2019-05-05T00:09:06.182Z,96686.26
2019-05-05T00:11:46.037Z,96688.03
2019-05-05T00:14:31.628Z,96689.77
2019-05-05T00:17:07.078Z,96697.23
2019-05-05T00:19:36.447Z,96691.45
2019-05-05T00:22:06.088Z,96690.41
2019-05-05T00:24:35.559Z,96692.37
2019-05-05T00:27:04.882Z,96684.05
2019-05-05T00:29:34.794Z,96684.53
2019-05-05T00:32:05.035Z,96687.25
2019-05-05T00:34:35.091Z,96693.94
2019-05-05T00:37:04.763Z,96690.88
2019-05-05T00:39:34.582Z,96695.20
2019-05-05T00:42:05.323Z,96701.75
2019-05-05T00:44:35.286Z,96703.08
2019-05-05T00:47:29.487Z,96706.03
2019-05-05T00:49:59.175Z,96707.87
2019-05-05T00:52:28.614Z,96706.61
2019-05-05T00:54:58.028Z,96711.00
2019-05-05T00:57:27.373Z,96716.22
2019-05-05T00:59:56.712Z,96706.64
2019-05-05T01:02:38.563Z,96712.66
2019-05-05T01:05:25.475Z,96714.77
2019-05-05T01:07:54.930Z,96707.12
2019-05-05T01:10:24.914Z,96712.31
2019-05-05T01:12:54.648Z,96715.58
2019-05-05T01:15:25.445Z,96715.24
2019-05-05T01:17:55.381Z,96716.56
2019-05-05T01:20:25.114Z,96720.78
2019-05-05T01:22:55.357Z,96719.22
2019-05-05T01:25:25.455Z,96728.02
2019-05-05T01:27:55.188Z,96726.76
2019-05-05T01:30:51.643Z,96726.72
2019-05-05T01:33:35.238Z,96731.31
2019-05-05T01:36:04.976Z,96731.98
2019-05-05T01:38:49.148Z,96731.34
2019-05-05T01:41:26.177Z,96732.56
2019-05-05T01:43:55.502Z,96728.89
2019-05-05T01:46:24.835Z,96734.36
2019-05-05T01:48:54.928Z,96724.58
2019-05-05T01:51:24.834Z,96735.30
2019-05-05T01:53:54.681Z,96725.30
2019-05-05T01:56:24.798Z,96729.70
2019-05-05T01:58:54.916Z,96738.14
2019-05-05T02:01:24.749Z,96736.61
2019-05-05T02:03:54.985Z,96746.98
2019-05-05T02:06:24.973Z,96744.58
2019-05-05T02:08:54.989Z,96742.31
2019-05-05T02:11:24.858Z,96745.92
2019-05-05T02:13:54.735Z,96746.36
2019-05-05T02:16:25.331Z,96744.77
2019-05-05T02:18:55.112Z,96742.97
2019-05-05T02:21:24.870Z,96745.58
2019-05-05T02:23:54.901Z,96745.71
2019-05-05T02:26:24.724Z,96743.16
2019-05-05T02:29:00.776Z,96745.71
2019-05-05T02:31:49.001Z,96749.86
2019-05-05T02:34:18.466Z,96755.57
2019-05-05T02:36:47.850Z,96761.89
2019-05-05T02:39:17.246Z,96760.84
2019-05-05T02:41:47.118Z,96764.98
2019-05-05T02:44:16.723Z,96770.14
2019-05-05T02:46:56.003Z,96773.53
2019-05-05T02:49:25.932Z,96782.21
2019-05-05T02:51:55.670Z,96784.63
2019-05-05T02:54:25.983Z,96781.48
2019-05-05T02:56:56.035Z,96784.13
2019-05-05T02:59:35.283Z,96788.11
2019-05-05T03:02:17.170Z,96791.79
2019-05-05T03:04:47.270Z,96792.61
2019-05-05T03:07:17.517Z,96789.92
2019-05-05T03:09:47.627Z,96798.27
2019-05-05T03:12:20.415Z,96801.17
2019-05-05T03:14:53.631Z,96802.49
2019-05-05T03:17:23.843Z,96804.16
2019-05-05T03:19:53.673Z,96813.41
2019-05-05T03:22:25.381Z,96807.48
2019-05-05T03:24:55.060Z,96808.28
2019-05-05T03:27:24.747Z,96810.23
2019-05-05T03:29:54.187Z,96813.14
2019-05-05T03:32:25.569Z,96816.41
2019-05-05T03:34:55.329Z,96817.25
2019-05-05T03:37:25.138Z,96818.50
2019-05-05T03:40:04.410Z,96825.06
2019-05-05T03:42:55.434Z,96828.83
2019-05-05T03:45:40.317Z,96831.93
2019-05-05T03:48:10.025Z,96831.88
2019-05-05T03:50:39.496Z,96842.91
2019-05-05T03:53:08.935Z,96849.86
2019-05-05T03:55:38.459Z,96843.67
2019-05-05T03:58:07.747Z,96848.35
2019-05-05T04:02:16.380Z,96855.66
2019-05-05T04:04:49.044Z,96853.14
2019-05-05T04:07:18.936Z,96861.80
2019-05-05T04:09:48.443Z,96866.88
2019-05-05T04:12:18.844Z,96858.23
2019-05-05T04:14:48.168Z,96866.14
2019-05-05T04:17:45.383Z,96862.47
2019-05-05T04:20:33.700Z,96857.16
2019-05-05T04:23:03.704Z,96862.67
2019-05-05T04:25:34.958Z,96867.77
2019-05-05T04:28:04.834Z,96875.90
2019-05-05T04:30:34.260Z,96884.35
2019-05-05T04:33:04.749Z,96884.55
2019-05-05T04:35:34.441Z,96884.34
2019-05-05T04:38:04.719Z,96879.99
2019-05-05T04:40:34.579Z,96892.88
2019-05-05T04:43:04.140Z,96892.48
2019-05-05T04:45:34.712Z,96899.10
2019-05-05T04:48:14.535Z,96897.03
2019-05-05T04:51:04.709Z,96894.52
2019-05-05T04:53:54.329Z,96891.25
2019-05-05T04:56:23.708Z,96892.96
2019-05-05T04:58:54.427Z,96898.98
2019-05-05T05:01:24.249Z,96897.80
2019-05-05T05:04:18.311Z,96897.98
2019-05-05T05:06:50.786Z,96896.53
2019-05-05T05:09:20.104Z,96897.33
2019-05-05T05:11:49.451Z,96906.84
2019-05-05T05:14:18.647Z,96904.38
2019-05-05T05:16:48.503Z,96903.06
2019-05-05T05:19:17.679Z,96906.92
2019-05-05T05:21:58.472Z,96902.33
2019-05-05T05:24:18.102Z,96901.25
2019-05-05T05:26:47.572Z,96901.38
2019-05-05T05:29:16.738Z,96905.66
2019-05-05T05:31:46.009Z,96908.14
2019-05-05T05:34:15.233Z,96911.98
2019-05-05T05:36:45.021Z,96914.67
2019-05-05T05:39:44.042Z,96918.08
2019-05-05T05:42:13.801Z,96924.23
2019-05-05T05:45:04.907Z,96921.31
2019-05-05T05:47:53.716Z,96937.38
2019-05-05T05:50:47.745Z,96929.60
2019-05-05T05:53:17.133Z,96934.34
2019-05-05T05:55:46.363Z,96935.51
2019-05-05T05:58:15.721Z,96942.08
2019-05-05T06:00:45.022Z,96944.32
2019-05-05T06:03:14.411Z,96941.00
2019-05-05T06:05:43.811Z,96944.31
2019-05-05T06:08:14.157Z,96946.61
2019-05-05T06:10:44.388Z,96951.19
2019-05-05T06:13:15.249Z,96949.72
2019-05-05T06:15:44.893Z,96954.58
2019-05-05T06:18:14.305Z,96955.84
2019-05-05T06:20:44.525Z,96949.64
2019-05-05T06:23:14.844Z,96957.20
2019-05-05T06:25:44.848Z,96961.61
2019-05-05T06:28:14.738Z,96956.72
2019-05-05T06:30:44.537Z,96955.70
2019-05-05T06:33:13.988Z,96954.72
2019-05-05T06:35:44.335Z,96950.45
2019-05-05T06:38:13.926Z,96952.44
2019-05-05T06:41:00.878Z,96950.42
2019-05-05T06:43:49.144Z,96949.11
2019-05-05T06:46:23.629Z,96952.63
2019-05-05T06:48:53.868Z,96950.67
2019-05-05T06:51:24.519Z,96952.56
2019-05-05T06:53:54.059Z,96961.18
2019-05-05T06:56:23.814Z,96963.92
2019-05-05T06:58:54.019Z,96960.64
2019-05-05T07:01:24.791Z,96952.33
2019-05-05T07:03:54.299Z,96945.64
2019-05-05T07:06:23.990Z,96936.90
2019-05-05T07:08:54.485Z,96937.83
2019-05-05T07:11:24.053Z,96941.34
2019-05-05T07:13:53.762Z,96940.38
2019-05-05T07:16:24.391Z,96947.64
2019-05-05T07:18:54.116Z,96941.18
2019-05-05T07:21:23.835Z,96943.07
2019-05-05T07:23:53.870Z,96955.03
2019-05-05T07:26:23.847Z,96944.25
2019-05-05T07:28:54.194Z,96939.88
2019-05-05T07:31:24.035Z,96946.58
2019-05-05T07:33:54.440Z,96952.30
2019-05-05T07:36:44.312Z,96946.28
2019-05-05T07:39:14.395Z,96944.77
2019-05-05T07:41:44.764Z,96942.97
2019-05-05T07:44:25.880Z,96942.61
2019-05-05T07:46:45.585Z,96946.88
2019-05-05T07:49:14.992Z,96944.72
2019-05-05T07:51:44.520Z,96949.42
2019-05-05T07:54:14.659Z,96942.26
2019-05-05T07:56:44.501Z,96937.75
2019-05-05T07:59:14.753Z,96938.97
2019-05-05T08:01:46.489Z,96938.47
2019-05-05T08:04:15.185Z,96947.66
2019-05-05T08:06:44.661Z,96948.80
2019-05-05T08:09:14.730Z,96961.83
2019-05-05T08:11:44.097Z,96956.13
2019-05-05T08:14:14.558Z,96960.43
2019-05-05T08:17:04.152Z,96964.96
2019-05-05T08:19:37.950Z,96967.73
2019-05-05T08:22:07.302Z,96973.39
2019-05-05T08:25:14.526Z,96971.77
2019-05-05T08:28:01.542Z,96978.97
2019-05-05T08:30:40.863Z,96972.63
2019-05-05T08:33:10.058Z,96979.25
2019-05-05T08:35:39.373Z,96982.48
2019-05-05T08:38:08.649Z,96978.44
2019-05-05T08:40:37.859Z,96981.57
2019-05-05T08:43:07.085Z,96981.78
2019-05-05T08:45:36.290Z,96981.56
2019-05-05T08:48:05.734Z,96987.97
2019-05-05T08:50:35.089Z,96997.76
2019-05-05T08:53:08.314Z,96994.91
2019-05-05T08:55:35.605Z,96991.45
2019-05-05T08:58:04.917Z,96994.36
2019-05-05T09:00:34.521Z,96995.23
2019-05-05T09:03:04.032Z,97000.84
2019-05-05T09:05:34.391Z,96996.77
2019-05-05T09:08:04.677Z,96997.23
2019-05-05T09:10:34.480Z,97000.46
2019-05-05T09:13:04.323Z,96997.45
2019-05-05T09:15:33.925Z,96998.28
2019-05-05T09:18:04.979Z,96999.72
2019-05-05T09:20:34.883Z,97004.64
2019-05-05T09:23:04.704Z,97011.64
2019-05-05T09:25:53.961Z,97004.88
2019-05-05T09:28:44.470Z,97000.61
2019-05-05T09:31:14.626Z,96997.23
2019-05-05T09:33:44.316Z,96994.05
2019-05-05T09:36:13.966Z,97002.11
2019-05-05T09:38:45.059Z,97009.27
2019-05-05T09:41:14.475Z,96992.23
2019-05-05T09:43:44.601Z,96987.57
2019-05-05T09:46:14.473Z,96988.83
2019-05-05T09:48:44.138Z,96986.30
2019-05-05T09:51:13.713Z,96995.77
2019-05-05T09:53:44.786Z,97012.11
2019-05-05T09:56:14.615Z,97003.00
2019-05-05T09:58:44.253Z,97008.06
2019-05-05T10:01:14.136Z,97006.50
2019-05-05T10:03:44.680Z,96997.61
2019-05-05T10:06:14.347Z,96994.91
2019-05-05T10:08:44.673Z,97010.67
2019-05-05T10:11:16.519Z,97006.09
2019-05-05T10:13:45.139Z,97008.55
2019-05-05T10:16:14.472Z,97005.90
2019-05-05T10:18:44.871Z,97009.43
2019-05-05T10:21:17.463Z,97004.88
2019-05-05T10:23:47.193Z,97013.77
2019-05-05T10:26:16.370Z,97017.75
2019-05-05T10:28:45.591Z,97011.52
2019-05-05T10:31:14.737Z,97009.47
2019-05-05T10:33:49.044Z,97015.47
2019-05-05T10:36:18.353Z,97023.59
2019-05-05T10:38:51.030Z,97018.41
2019-05-05T10:41:20.193Z,97010.11
2019-05-05T10:43:49.398Z,97014.73
2019-05-05T10:46:18.546Z,97021.13
2019-05-05T10:48:47.788Z,97024.70
2019-05-05T10:51:16.969Z,97027.42
2019-05-05T10:53:46.208Z,97033.83
2019-05-05T10:56:15.414Z,97033.02
2019-05-05T10:58:44.622Z,97024.66
2019-05-05T11:01:14.495Z,97022.86
2019-05-05T11:03:44.615Z,97021.67
2019-05-05T11:06:14.101Z,97011.34
2019-05-05T11:08:45.141Z,97008.37
2019-05-05T11:11:14.167Z,97020.77
2019-05-05T11:13:45.517Z,97020.08
2019-05-05T11:16:15.176Z,97017.20
2019-05-05T11:18:44.365Z,97006.13
2019-05-05T11:21:14.468Z,96998.08
2019-05-05T11:23:44.805Z,97014.66
2019-05-05T11:26:14.521Z,97021.81
2019-05-05T11:28:44.501Z,97026.05
2019-05-05T11:31:13.962Z,97021.58
2019-05-05T11:34:07.480Z,97025.02
2019-05-05T11:37:03.611Z,97022.08
2019-05-05T11:39:34.010Z,97011.52
2019-05-05T11:42:04.453Z,97002.42
2019-05-05T11:44:33.817Z,96988.83
2019-05-05T11:47:03.783Z,97010.69
2019-05-05T11:49:33.823Z,97010.48
2019-05-05T11:52:04.606Z,97015.38
2019-05-05T11:54:35.026Z,97016.70
2019-05-05T11:57:04.601Z,97019.39
2019-05-05T11:59:34.539Z,97019.50
2019-05-05T12:02:03.955Z,97023.70
2019-05-05T12:04:33.123Z,97026.03
2019-05-05T12:07:04.093Z,97027.70
2019-05-05T12:09:44.744Z,97026.88
2019-05-05T12:12:14.315Z,97018.59
2019-05-05T12:14:43.875Z,97012.50
2019-05-05T12:17:14.807Z,97008.30
2019-05-05T12:19:44.003Z,97010.80
2019-05-05T12:22:13.434Z,97006.23
2019-05-05T12:24:45.773Z,97008.73
2019-05-05T12:27:24.845Z,97015.70
2019-05-05T12:29:58.030Z,97007.11
2019-05-05T12:32:27.341Z,97018.77
2019-05-05T12:34:56.638Z,97012.12
2019-05-05T12:37:25.905Z,97013.72
2019-05-05T12:39:55.183Z,97021.00
2019-05-05T12:42:24.433Z,97022.64
2019-05-05T12:45:05.712Z,97016.25
2019-05-05T12:47:53.967Z,97011.31
2019-05-05T12:50:24.583Z,97007.83
2019-05-05T12:52:54.880Z,97014.75
2019-05-05T12:55:38.347Z,97016.53
2019-05-05T12:57:55.303Z,97007.63
2019-05-05T13:00:25.581Z,97021.20
2019-05-05T13:02:54.910Z,97024.52
2019-05-05T13:05:24.158Z,97031.77
2019-05-05T13:07:54.203Z,97038.16
2019-05-05T13:10:25.808Z,97038.15
2019-05-05T13:12:56.765Z,97037.89
2019-05-05T13:15:26.944Z,97037.05
2019-05-05T13:18:01.089Z,97037.95
2019-05-05T13:20:50.242Z,97031.04
2019-05-05T13:23:30.860Z,97027.03
2019-05-05T13:26:15.990Z,97027.35
2019-05-05T13:28:45.864Z,97027.80
2019-05-05T13:31:15.035Z,97019.13
2019-05-05T13:33:44.378Z,97012.16
2019-05-05T13:36:13.908Z,97002.27
2019-05-05T13:38:43.863Z,96999.86
2019-05-05T13:41:13.529Z,96989.02
2019-05-05T13:43:42.915Z,97000.66
2019-05-05T13:46:17.017Z,97001.70
2019-05-05T13:48:46.963Z,97002.75
2019-05-05T13:51:16.609Z,96986.78
2019-05-05T13:53:45.869Z,96986.98
2019-05-05T13:56:15.553Z,96979.88
2019-05-05T13:58:45.577Z,96988.84
2019-05-05T14:01:14.921Z,96975.63
2019-05-05T14:03:44.803Z,96977.85
2019-05-05T14:06:14.165Z,96970.41
2019-05-05T14:08:44.798Z,96970.41
2019-05-05T14:11:14.399Z,96965.56
2019-05-05T14:13:45.466Z,96971.12
2019-05-05T14:16:14.847Z,96971.12
2019-05-05T14:18:44.374Z,96961.38
2019-05-05T14:21:14.112Z,96966.94
2019-05-05T14:25:24.257Z,96955.28
2019-05-05T14:27:54.115Z,96961.06
2019-05-05T14:30:43.635Z,96963.22
2019-05-05T14:33:23.548Z,96958.43
2019-05-05T14:36:14.385Z,96955.70
2019-05-05T14:38:55.243Z,96950.80
2019-05-05T14:41:24.692Z,96955.09
2019-05-05T14:43:56.383Z,96958.80
2019-05-05T14:46:25.293Z,96948.94
2019-05-05T14:48:54.824Z,96960.08
2019-05-05T14:51:24.135Z,96959.78
2019-05-05T14:53:54.246Z,96963.88
2019-05-05T14:56:35.606Z,96949.08
2019-05-05T14:58:54.833Z,96954.36
2019-05-05T15:01:24.802Z,96953.55
2019-05-05T15:03:54.213Z,96951.65
2019-05-05T15:06:41.120Z,96957.99
2019-05-05T15:09:37.316Z,96952.94
2019-05-05T15:12:24.176Z,96952.67
2019-05-05T15:14:54.644Z,96960.44
2019-05-05T15:17:24.639Z,96955.38
2019-05-05T15:19:54.188Z,96957.58
2019-05-05T15:22:24.032Z,96955.55
2019-05-05T15:24:53.746Z,96952.22
2019-05-05T15:27:24.237Z,96953.50
2019-05-05T15:29:54.375Z,96951.20
2019-05-05T15:32:24.269Z,96956.12
2019-05-05T15:34:54.571Z,96966.36
2019-05-05T15:37:24.231Z,96963.12
2019-05-05T15:39:53.786Z,96954.47
2019-05-05T15:42:23.353Z,96958.56
2019-05-05T15:44:54.393Z,96961.06
2019-05-05T15:47:25.613Z,96959.98
2019-05-05T15:49:55.125Z,96957.65
2019-05-05T15:52:24.419Z,96959.08
2019-05-05T15:54:54.046Z,96962.41
2019-05-05T15:57:24.126Z,96959.08
2019-05-05T15:59:54.282Z,96971.20
2019-05-05T16:02:24.096Z,96965.27
2019-05-05T16:04:54.078Z,96971.19
2019-05-05T16:07:24.230Z,96977.41
2019-05-05T16:09:53.886Z,96988.86
2019-05-05T16:12:33.384Z,96983.36
2019-05-05T16:15:11.273Z,96988.40
2019-05-05T16:17:46.418Z,96988.52
2019-05-05T16:20:21.728Z,97003.27
2019-05-05T16:23:07.235Z,96998.75
2019-05-05T16:25:36.679Z,97002.54
2019-05-05T16:28:06.018Z,97004.47
2019-05-05T16:30:35.335Z,97002.25
2019-05-05T16:33:04.578Z,97004.10
2019-05-05T16:35:34.307Z,97001.70
2019-05-05T16:38:06.304Z,97005.00
2019-05-05T16:40:34.888Z,97011.47
2019-05-05T16:43:04.725Z,97005.42
2019-05-05T16:45:34.190Z,97016.27
2019-05-05T16:48:03.978Z,97015.55
2019-05-05T16:50:34.105Z,97008.18
2019-05-05T16:53:05.937Z,97012.82
2019-05-05T16:55:55.692Z,97017.17
2019-05-05T16:58:25.006Z,97017.17
2019-05-05T17:00:54.514Z,97017.08
2019-05-05T17:03:24.118Z,97018.39
2019-05-05T17:05:54.584Z,97008.48
2019-05-05T17:08:24.637Z,97005.11
2019-05-05T17:10:54.051Z,97008.76
2019-05-05T17:13:44.035Z,97003.38
2019-05-05T17:16:30.850Z,97004.41
2019-05-05T17:19:09.387Z,97006.30
2019-05-05T17:22:00.633Z,97011.27
2019-05-05T17:24:29.982Z,97014.02
2019-05-05T17:26:59.258Z,97017.96
2019-05-05T17:29:28.662Z,97028.17
2019-05-05T17:31:57.986Z,97029.66
2019-05-05T17:34:27.226Z,97033.91
2019-05-05T17:36:56.607Z,97033.51
2019-05-05T17:39:27.598Z,97040.40
2019-05-05T17:42:18.887Z,97037.63
2019-05-05T17:45:44.018Z,97026.78
2019-05-05T17:48:20.271Z,97029.72
2019-05-05T17:51:11.447Z,97035.55
2019-05-05T17:54:03.698Z,97036.09
2019-05-05T17:56:33.630Z,97035.55
2019-05-05T17:59:03.552Z,97029.06
2019-05-05T18:01:33.621Z,97035.04
2019-05-05T18:04:04.123Z,97031.14
2019-05-05T18:06:47.386Z,97034.42
2019-05-05T18:09:27.465Z,97036.29
2019-05-05T18:12:24.645Z,97033.98
2019-05-05T18:14:55.411Z,97039.34
2019-05-05T18:17:24.713Z,97046.21
2019-05-05T18:19:54.118Z,97043.63
2019-05-05T18:22:24.630Z,97044.88
2019-05-05T18:24:54.308Z,97044.13
2019-05-05T18:27:23.810Z,97053.75
2019-05-05T18:29:54.424Z,97053.84
2019-05-05T18:32:24.423Z,97059.00
2019-05-05T18:34:54.484Z,97054.19
2019-05-05T18:37:24.320Z,97055.07
2019-05-05T18:39:54.595Z,97058.39
2019-05-05T18:42:25.214Z,97058.97
2019-05-05T18:45:04.906Z,97057.80
2019-05-05T18:47:34.444Z,97059.72
2019-05-05T18:50:04.201Z,97060.44
2019-05-05T18:52:34.648Z,97056.74
2019-05-05T18:55:04.558Z,97066.05
2019-05-05T18:57:34.320Z,97067.67
2019-05-05T19:00:05.016Z,97070.38
2019-05-05T19:02:50.780Z,97074.75
2019-05-05T19:05:44.788Z,97077.34
2019-05-05T19:08:33.006Z,97082.81
2019-05-05T19:11:03.732Z,97078.89
2019-05-05T19:13:34.066Z,97085.36
2019-05-05T19:16:03.883Z,97091.90
2019-05-05T19:18:34.012Z,97092.92
2019-05-05T19:21:24.984Z,97103.34
2019-05-05T19:23:54.449Z,97097.70
2019-05-05T19:26:24.140Z,97095.34
2019-05-05T19:28:54.753Z,97101.09
2019-05-05T19:31:24.374Z,97099.29
2019-05-05T19:33:55.629Z,97097.36
2019-05-05T19:36:27.341Z,97097.83
2019-05-05T19:38:55.924Z,97103.55
2019-05-05T19:41:25.367Z,97100.72
2019-05-05T19:43:55.210Z,97102.31
2019-05-05T19:46:30.832Z,97106.30
2019-05-05T19:49:16.104Z,97112.63
2019-05-05T19:51:45.773Z,97111.13
2019-05-05T19:54:15.117Z,97115.17
2019-05-05T19:56:45.245Z,97115.17
2019-05-05T19:59:14.641Z,97114.13
2019-05-05T20:01:44.961Z,97115.64
2019-05-05T20:04:14.849Z,97110.30
2019-05-05T20:06:44.513Z,97110.30
2019-05-05T20:09:14.497Z,97109.88
2019-05-05T20:11:44.115Z,97108.89
2019-05-05T20:14:15.075Z,97119.38
2019-05-05T20:17:04.395Z,97117.75
2019-05-05T20:19:39.244Z,97112.80
2019-05-05T20:22:08.601Z,97110.25
2019-05-05T20:24:37.953Z,97111.77
2019-05-05T20:27:07.333Z,97107.09
2019-05-05T20:29:37.590Z,97111.47
2019-05-05T20:32:07.165Z,97110.45
2019-05-05T20:35:04.360Z,97114.44
2019-05-05T20:37:58.688Z,97112.36
2019-05-05T20:40:30.695Z,97118.63
2019-05-05T20:43:00.074Z,97114.02
2019-05-05T20:45:31.081Z,97114.68
2019-05-05T20:48:00.482Z,97120.37
2019-05-05T20:50:29.997Z,97116.72
2019-05-05T20:52:59.308Z,97111.86
2019-05-05T20:55:28.714Z,97115.95
2019-05-05T20:57:58.125Z,97118.50
2019-05-05T21:00:27.548Z,97118.77
2019-05-05T21:02:57.007Z,97124.38
2019-05-05T21:05:26.406Z,97119.95
2019-05-05T21:07:55.780Z,97119.73
2019-05-05T21:10:25.138Z,97117.97
2019-05-05T21:12:54.613Z,97121.07
2019-05-05T21:15:24.687Z,97123.56
2019-05-05T21:17:54.459Z,97110.16
2019-05-05T21:20:24.191Z,97117.16
2019-05-05T21:23:03.690Z,97115.43
2019-05-05T21:25:35.198Z,97114.38
2019-05-05T21:28:04.590Z,97114.27
2019-05-05T21:30:33.972Z,97106.70
2019-05-05T21:33:04.394Z,97111.88
2019-05-05T21:35:34.862Z,97115.66
2019-05-05T21:38:04.963Z,97115.42
2019-05-05T21:40:34.734Z,97112.30
2019-05-05T21:43:05.137Z,97116.31
2019-05-05T21:45:34.961Z,97111.64
2019-05-05T21:48:04.574Z,97113.78
2019-05-05T21:50:42.343Z,97118.53
2019-05-05T21:53:17.116Z,97114.27
2019-05-05T21:56:04.389Z,97120.78
2019-05-05T21:58:44.847Z,97122.56
2019-05-05T22:01:19.823Z,97119.21
2019-05-05T22:03:49.041Z,97126.42
2019-05-05T22:06:18.165Z,97117.31
2019-05-05T22:08:47.435Z,97119.50
2019-05-05T22:11:16.591Z,97118.53
2019-05-05T22:13:45.802Z,97116.55
2019-05-05T22:16:14.991Z,97111.16
2019-05-05T22:18:46.555Z,97105.77
2019-05-05T22:21:30.271Z,97106.63
2019-05-05T22:24:16.954Z,97106.02
2019-05-05T22:26:46.090Z,97104.47
2019-05-05T22:29:16.943Z,97100.13
2019-05-05T22:31:46.813Z,97110.08
2019-05-05T22:34:16.008Z,97107.52
2019-05-05T22:36:45.472Z,97101.02
2019-05-05T22:39:17.069Z,97102.67
2019-05-05T22:41:46.840Z,97103.61
2019-05-05T22:44:16.273Z,97107.48
2019-05-05T22:46:45.817Z,97105.76
2019-05-05T22:49:15.027Z,97105.56
2019-05-05T22:51:44.867Z,97107.16
2019-05-05T22:54:14.933Z,97113.27
2019-05-05T22:56:44.927Z,97114.53
2019-05-05T22:59:14.148Z,97113.20
2019-05-05T23:01:43.350Z,97115.89
2019-05-05T23:04:34.892Z,97113.13
2019-05-05T23:07:08.285Z,97111.00
2019-05-05T23:09:37.460Z,97109.16
2019-05-05T23:12:06.677Z,97115.19
2019-05-05T23:14:35.817Z,97109.67
2019-05-05T23:17:26.249Z,97116.39
2019-05-05T23:20:04.636Z,97110.78
2019-05-05T23:22:45.453Z,97119.36
2019-05-05T23:25:20.941Z,97117.41
2019-05-05T23:27:50.918Z,97119.98
2019-05-05T23:30:23.584Z,97120.08
2019-05-05T23:32:54.641Z,97118.42
2019-05-05T23:35:24.022Z,97116.19
2019-05-05T23:37:55.227Z,97125.89
2019-05-05T23:40:25.577Z,97113.35
2019-05-05T23:42:54.785Z,97121.39
2019-05-05T23:45:24.998Z,97115.16
2019-05-05T23:47:54.854Z,97118.63
2019-05-05T23:50:24.228Z,97115.23
2019-05-05T23:52:54.516Z,97121.86
2019-05-05T23:55:24.311Z,97124.71
2019-05-05T23:57:54.730Z,97129.90
